Time;durP1;ratioP1;P1;durP2;ratioP2;P2;SDS_P1;SDS_P2;PMS_P1;PMS_P2;Temp;Humidity;BMP_temperature;BMP_pressure;BME280_temperature;BME280_humidity;BME280_pressure;Samples;Min_cycle;Max_cycle;Signal;HPM_P1;HPM_P2
2021/08/01 00:01:32;;;;;;;4.85;2.42;;;;;;;;;;4996330;28;20038;-81
2021/08/01 00:03:59;;;;;;;7.15;3.00;;;;;;;;;;4975650;28;20065;-81
2021/08/01 00:06:26;;;;;;;5.68;3.00;;;;;;;;;;4995203;28;20045;-81
2021/08/01 00:08:53;;;;;;;7.45;3.00;;;;;;;;;;4996030;28;20046;-81
2021/08/01 00:11:20;;;;;;;6.28;3.17;;;;;;;;;;4996336;28;20438;-81
2021/08/01 00:13:47;;;;;;;5.65;2.88;;;;;;;;;;4996800;28;20046;-81
2021/08/01 00:16:15;;;;;;;5.55;2.92;;;;;;;;;;4994504;28;20050;-81
2021/08/01 00:18:43;;;;;;;4.53;2.60;;;;;;;;;;4996171;28;20046;-81
2021/08/01 00:21:10;;;;;;;6.68;3.50;;;;;;;;;;4995314;28;20053;-81
2021/08/01 00:23:36;;;;;;;4.53;2.35;;;;;;;;;;4996365;28;20042;-81
2021/08/01 00:26:03;;;;;;;5.85;2.70;;;;;;;;;;4994672;28;20077;-81
2021/08/01 00:28:29;;;;;;;7.72;2.75;;;;;;;;;;4995653;28;20489;-82
2021/08/01 00:30:58;;;;;;;9.40;2.95;;;;;;;;;;4992348;28;20081;-81
2021/08/01 00:33:24;;;;;;;8.40;3.88;;;;;;;;;;4995147;28;20129;-80
2021/08/01 00:35:52;;;;;;;6.90;3.20;;;;;;;;;;4995958;28;20050;-80
2021/08/01 00:38:18;;;;;;;11.57;4.03;;;;;;;;;;4995968;28;20058;-80
2021/08/01 00:40:45;;;;;;;7.43;3.28;;;;;;;;;;4989184;28;20054;-80
2021/08/01 00:43:11;;;;;;;5.53;3.03;;;;;;;;;;4983231;28;20053;-81
2021/08/01 00:45:39;;;;;;;6.85;3.30;;;;;;;;;;4985012;28;20062;-81
2021/08/01 00:48:09;;;;;;;4.68;3.00;;;;;;;;;;4995305;28;20038;-81
2021/08/01 00:50:35;;;;;;;9.23;4.10;;;;;;;;;;4988769;28;20058;-81
2021/08/01 00:53:04;;;;;;;9.55;3.95;;;;;;;;;;4987272;28;20045;-81
2021/08/01 00:55:30;;;;;;;8.23;4.03;;;;;;;;;;4995759;28;20053;-81
2021/08/01 00:57:57;;;;;;;6.70;3.47;;;;;;;;;;4994471;28;20047;-81
2021/08/01 01:00:37;;;;;;;6.25;3.67;;;;;;;;;;4990104;28;20039;-81
2021/08/01 01:03:10;;;;;;;9.95;4.55;;;;;;;;;;4992363;28;20042;-81
2021/08/01 01:05:40;;;;;;;6.95;3.65;;;;;;;;;;4984572;28;20081;-81
2021/08/01 01:08:13;;;;;;;8.15;3.67;;;;;;;;;;4982453;28;20055;-80
2021/08/01 01:10:43;;;;;;;5.22;3.58;;;;;;;;;;4995856;28;20069;-81
2021/08/01 01:13:11;;;;;;;6.80;3.55;;;;;;;;;;4988808;28;20047;-81
2021/08/01 01:15:42;;;;;;;5.90;3.88;;;;;;;;;;4976348;28;20057;-81
2021/08/01 01:18:10;;;;;;;8.43;4.35;;;;;;;;;;4976284;28;20053;-81
2021/08/01 01:20:40;;;;;;;7.55;4.22;;;;;;;;;;4976289;28;20054;-81
2021/08/01 01:23:25;;;;;;;10.45;4.13;;;;;;;;;;4975458;28;20051;-81
2021/08/01 01:26:00;;;;;;;9.55;3.72;;;;;;;;;;4974658;28;20495;-81
2021/08/01 01:28:32;;;;;;;5.70;3.78;;;;;;;;;;4975800;28;20042;-81
2021/08/01 01:31:06;;;;;;;8.55;3.70;;;;;;;;;;4975550;28;20050;-81
2021/08/01 01:33:35;;;;;;;8.35;4.32;;;;;;;;;;4975481;28;20051;-81
2021/08/01 01:36:03;;;;;;;9.77;4.10;;;;;;;;;;4974987;28;20061;-81
2021/08/01 01:38:31;;;;;;;7.55;3.78;;;;;;;;;;4974983;28;20055;-81
2021/08/01 01:40:58;;;;;;;6.63;4.13;;;;;;;;;;4974837;28;20488;-82
2021/08/01 01:43:25;;;;;;;8.25;3.83;;;;;;;;;;4975536;28;20399;-81
2021/08/01 01:45:52;;;;;;;7.10;3.97;;;;;;;;;;4975161;28;20043;-82
2021/08/01 01:48:19;;;;;;;7.15;3.85;;;;;;;;;;4975128;28;20047;-82
2021/08/01 01:50:46;;;;;;;6.82;3.60;;;;;;;;;;4975119;28;20047;-82
2021/08/01 01:53:13;;;;;;;5.30;3.47;;;;;;;;;;4974054;28;20412;-82
2021/08/01 01:55:42;;;;;;;8.15;3.40;;;;;;;;;;4973680;28;20046;-82
2021/08/01 01:58:11;;;;;;;6.57;3.15;;;;;;;;;;4974948;28;20576;-82
2021/08/01 02:00:38;;;;;;;6.43;3.78;;;;;;;;;;4974767;28;20058;-82
2021/08/01 02:03:04;;;;;;;17.65;5.85;;;;;;;;;;4978041;28;20054;-82
2021/08/01 02:05:31;;;;;;;6.10;3.38;;;;;;;;;;4997205;28;20054;-82
2021/08/01 02:07:57;;;;;;;8.90;3.50;;;;;;;;;;4998793;28;20046;-82
2021/08/01 02:10:26;;;;;;;9.07;3.60;;;;;;;;;;4996791;28;20051;-82
2021/08/01 02:12:57;;;;;;;5.93;2.85;;;;;;;;;;4997502;28;20046;-81
2021/08/01 02:15:24;;;;;;;8.50;2.47;;;;;;;;;;4997755;28;20053;-81
2021/08/01 02:17:54;;;;;;;5.15;2.20;;;;;;;;;;4997527;28;20050;-81
2021/08/01 02:20:23;;;;;;;4.03;1.98;;;;;;;;;;4998098;28;20066;-81
2021/08/01 02:22:51;;;;;;;4.78;1.92;;;;;;;;;;4997725;28;20688;-82
2021/08/01 02:25:18;;;;;;;5.45;1.98;;;;;;;;;;4997568;28;20073;-81
2021/08/01 02:27:45;;;;;;;9.10;2.20;;;;;;;;;;4993775;28;20047;-81
2021/08/01 02:30:14;;;;;;;4.45;2.30;;;;;;;;;;4992651;28;20050;-82
2021/08/01 02:32:41;;;;;;;5.43;1.60;;;;;;;;;;4997456;28;20050;-81
2021/08/01 02:35:08;;;;;;;5.05;1.83;;;;;;;;;;4997264;28;20178;-82
2021/08/01 02:37:36;;;;;;;4.78;1.88;;;;;;;;;;4997505;28;20050;-81
2021/08/01 02:40:03;;;;;;;5.80;2.00;;;;;;;;;;4997776;28;20050;-82
2021/08/01 02:42:30;;;;;;;8.68;2.10;;;;;;;;;;4997958;28;20047;-81
2021/08/01 02:44:58;;;;;;;5.15;2.72;;;;;;;;;;4996305;28;20403;-82
2021/08/01 02:47:30;;;;;;;2.38;1.70;;;;;;;;;;4997723;28;20481;-82
2021/08/01 02:49:57;;;;;;;4.43;1.70;;;;;;;;;;4997228;28;20061;-82
2021/08/01 02:52:29;;;;;;;3.78;1.70;;;;;;;;;;4995908;28;20502;-82
2021/08/01 02:54:55;;;;;;;4.40;1.60;;;;;;;;;;4987894;28;20047;-82
2021/08/01 02:57:24;;;;;;;3.80;1.83;;;;;;;;;;4977346;28;20051;-82
2021/08/01 02:59:51;;;;;;;3.92;1.80;;;;;;;;;;4977147;28;20492;-82
2021/08/01 03:02:18;;;;;;;3.92;1.88;;;;;;;;;;4977316;28;20054;-82
2021/08/01 03:04:46;;;;;;;5.57;2.08;;;;;;;;;;4977209;28;20050;-81
2021/08/01 03:07:13;;;;;;;3.22;2.22;;;;;;;;;;4976670;28;20058;-81
2021/08/01 03:09:40;;;;;;;3.88;1.70;;;;;;;;;;4976029;28;20051;-82
2021/08/01 03:12:09;;;;;;;4.50;1.67;;;;;;;;;;4976606;28;20584;-81
2021/08/01 03:14:36;;;;;;;3.15;1.40;;;;;;;;;;4977243;28;20051;-82
2021/08/01 03:17:02;;;;;;;5.65;1.55;;;;;;;;;;4991488;28;20400;-81
2021/08/01 03:19:29;;;;;;;4.07;1.58;;;;;;;;;;4996514;28;20062;-81
2021/08/01 03:21:56;;;;;;;4.10;1.77;;;;;;;;;;4996776;28;20046;-81
2021/08/01 03:24:23;;;;;;;4.47;1.92;;;;;;;;;;4996575;28;20588;-81
2021/08/01 03:26:49;;;;;;;2.20;1.52;;;;;;;;;;4996067;28;20051;-83
2021/08/01 03:29:16;;;;;;;3.80;1.60;;;;;;;;;;4995342;28;20389;-82
2021/08/01 03:31:43;;;;;;;7.28;2.17;;;;;;;;;;4995261;28;20414;-81
2021/08/01 03:34:09;;;;;;;4.72;2.15;;;;;;;;;;4995150;28;20050;-81
2021/08/01 03:36:36;;;;;;;3.67;1.77;;;;;;;;;;4996125;28;20695;-82
2021/08/01 03:39:04;;;;;;;3.60;1.92;;;;;;;;;;5011627;28;20050;-81
2021/08/01 03:41:31;;;;;;;4.07;1.85;;;;;;;;;;4996454;28;20054;-81
2021/08/01 03:43:57;;;;;;;6.35;2.85;;;;;;;;;;4996423;28;20042;-82
2021/08/01 03:46:24;;;;;;;5.47;2.10;;;;;;;;;;5011313;28;20518;-81
2021/08/01 03:48:50;;;;;;;5.22;1.75;;;;;;;;;;4995653;28;20593;-82
2021/08/01 03:51:17;;;;;;;4.28;1.88;;;;;;;;;;4995715;28;20050;-81
2021/08/01 03:53:43;;;;;;;5.03;2.28;;;;;;;;;;4996617;28;20046;-82
2021/08/01 03:56:11;;;;;;;8.07;1.90;;;;;;;;;;4996500;28;20047;-82
2021/08/01 03:58:38;;;;;;;3.70;1.70;;;;;;;;;;4996670;28;20042;-82
2021/08/01 04:01:04;;;;;;;3.95;2.00;;;;;;;;;;4979695;28;20065;-83
2021/08/01 04:03:31;;;;;;;4.18;2.20;;;;;;;;;;4996078;28;20090;-82
2021/08/01 04:05:58;;;;;;;4.50;2.10;;;;;;;;;;4981697;28;20043;-82
2021/08/01 04:08:24;;;;;;;4.30;2.10;;;;;;;;;;4967902;28;20447;-82
2021/08/01 04:10:51;;;;;;;5.47;2.55;;;;;;;;;;4996133;28;20073;-82
2021/08/01 04:13:19;;;;;;;6.05;2.85;;;;;;;;;;4997381;28;20046;-82
2021/08/01 04:15:47;;;;;;;3.95;2.55;;;;;;;;;;4997780;28;20084;-82
2021/08/01 04:18:13;;;;;;;5.90;2.80;;;;;;;;;;4997865;28;20495;-82
2021/08/01 04:20:40;;;;;;;3.45;2.60;;;;;;;;;;4995842;28;20050;-82
2021/08/01 04:23:07;;;;;;;4.50;2.92;;;;;;;;;;4997246;28;20046;-84
2021/08/01 04:25:33;;;;;;;10.02;2.90;;;;;;;;;;4995995;28;20054;-82
2021/08/01 04:28:00;;;;;;;5.80;3.28;;;;;;;;;;4996594;28;20050;-82
2021/08/01 04:30:28;;;;;;;6.75;3.30;;;;;;;;;;4996204;28;20046;-82
2021/08/01 04:32:54;;;;;;;8.00;3.33;;;;;;;;;;4969396;28;20045;-82
2021/08/01 04:35:21;;;;;;;5.93;3.55;;;;;;;;;;4989311;28;20048;-82
2021/08/01 04:37:48;;;;;;;4.82;3.13;;;;;;;;;;4969363;28;20050;-82
2021/08/01 04:40:15;;;;;;;6.75;3.78;;;;;;;;;;4966829;28;20074;-83
2021/08/01 04:42:42;;;;;;;9.50;3.92;;;;;;;;;;4982746;28;20125;-82
2021/08/01 04:45:10;;;;;;;6.53;2.92;;;;;;;;;;4996604;28;20050;-82
2021/08/01 04:47:38;;;;;;;9.65;3.53;;;;;;;;;;4995152;28;20415;-82
2021/08/01 04:50:05;;;;;;;4.85;3.33;;;;;;;;;;4997513;28;20042;-82
2021/08/01 04:52:31;;;;;;;5.97;3.45;;;;;;;;;;4998196;28;20046;-81
2021/08/01 04:54:58;;;;;;;4.15;3.08;;;;;;;;;;4997824;28;20050;-82
2021/08/01 04:57:24;;;;;;;5.75;3.53;;;;;;;;;;4996085;28;20407;-82
2021/08/01 04:59:51;;;;;;;6.20;3.03;;;;;;;;;;4996890;28;20050;-82
2021/08/01 05:02:18;;;;;;;5.72;3.10;;;;;;;;;;4994237;28;20050;-82
2021/08/01 05:04:46;;;;;;;32.35;5.72;;;;;;;;;;4996334;28;20117;-81
2021/08/01 05:07:12;;;;;;;9.25;4.55;;;;;;;;;;4963762;28;20129;-83
2021/08/01 05:09:39;;;;;;;6.78;2.90;;;;;;;;;;4982137;28;20050;-83
2021/08/01 05:12:06;;;;;;;7.18;2.58;;;;;;;;;;4997304;28;20054;-82
2021/08/01 05:14:33;;;;;;;9.60;3.65;;;;;;;;;;4995849;28;20054;-82
2021/08/01 05:17:00;;;;;;;5.18;3.13;;;;;;;;;;4996211;28;20483;-84
2021/08/01 05:19:26;;;;;;;6.82;2.95;;;;;;;;;;4997709;28;20057;-82
2021/08/01 05:21:54;;;;;;;4.22;2.95;;;;;;;;;;4997669;28;20061;-83
2021/08/01 05:24:21;;;;;;;5.63;2.88;;;;;;;;;;4996650;28;20545;-82
2021/08/01 05:26:48;;;;;;;4.40;2.50;;;;;;;;;;4997606;28;20043;-82
2021/08/01 05:29:14;;;;;;;4.72;2.55;;;;;;;;;;4997041;28;20057;-82
2021/08/01 05:31:41;;;;;;;5.30;2.70;;;;;;;;;;5012236;28;20506;-82
2021/08/01 05:34:07;;;;;;;5.10;2.63;;;;;;;;;;4997775;28;20057;-83
2021/08/01 05:36:34;;;;;;;5.07;2.70;;;;;;;;;;4998287;28;20050;-83
2021/08/01 05:39:02;;;;;;;4.03;2.70;;;;;;;;;;4979816;28;20511;-83
2021/08/01 05:41:28;;;;;;;6.07;2.40;;;;;;;;;;4999363;28;20050;-82
2021/08/01 05:43:55;;;;;;;4.97;2.95;;;;;;;;;;4998420;28;20050;-82
2021/08/01 05:46:22;;;;;;;6.93;3.17;;;;;;;;;;4997874;28;20108;-82
2021/08/01 05:48:48;;;;;;;7.28;2.58;;;;;;;;;;4998972;28;20053;-82
2021/08/01 05:51:15;;;;;;;4.38;2.50;;;;;;;;;;4996920;28;20503;-83
2021/08/01 05:53:41;;;;;;;7.15;2.50;;;;;;;;;;5014157;28;20384;-82
2021/08/01 05:56:10;;;;;;;4.00;2.40;;;;;;;;;;4997509;28;20050;-83
2021/08/01 05:58:37;;;;;;;5.60;2.65;;;;;;;;;;4999308;28;20054;-82
2021/08/01 06:01:08;;;;;;;5.78;3.28;;;;;;;;;;4999278;28;20046;-82
2021/08/01 06:03:38;;;;;;;4.93;2.92;;;;;;;;;;4998187;28;20038;-82
2021/08/01 06:06:12;;;;;;;6.97;3.17;;;;;;;;;;4999295;28;20178;-83
2021/08/01 06:08:39;;;;;;;6.43;4.13;;;;;;;;;;4998244;28;20043;-82
2021/08/01 06:11:06;;;;;;;5.95;3.35;;;;;;;;;;4997219;28;20407;-83
2021/08/01 06:13:34;;;;;;;5.05;3.17;;;;;;;;;;4998015;28;20491;-81
2021/08/01 06:16:01;;;;;;;4.60;3.13;;;;;;;;;;4999392;28;20042;-82
2021/08/01 06:18:27;;;;;;;7.65;3.55;;;;;;;;;;4999204;28;20054;-82
2021/08/01 06:21:06;;;;;;;5.65;3.28;;;;;;;;;;4999112;28;20057;-83
2021/08/01 06:23:32;;;;;;;8.93;3.75;;;;;;;;;;4997012;28;20484;-83
2021/08/01 06:25:59;;;;;;;7.80;2.90;;;;;;;;;;4986520;28;20426;-81
2021/08/01 06:28:26;;;;;;;6.10;3.70;;;;;;;;;;4981660;28;20053;-83
2021/08/01 06:30:54;;;;;;;7.65;4.15;;;;;;;;;;4963669;28;20047;-83
2021/08/01 06:33:20;;;;;;;6.88;3.58;;;;;;;;;;4981602;28;20077;-82
2021/08/01 06:35:47;;;;;;;7.07;4.03;;;;;;;;;;4980289;28;20047;-84
2021/08/01 06:38:13;;;;;;;6.47;4.03;;;;;;;;;;4981880;28;20054;-84
2021/08/01 06:40:40;;;;;;;5.95;3.65;;;;;;;;;;4980116;28;20047;-85
2021/08/01 06:43:07;;;;;;;8.20;4.75;;;;;;;;;;4980352;28;20078;-82
2021/08/01 06:45:33;;;;;;;6.20;4.22;;;;;;;;;;4981194;28;20069;-84
2021/08/01 06:48:01;;;;;;;7.50;4.15;;;;;;;;;;4981084;28;20386;-85
2021/08/01 06:50:28;;;;;;;7.95;4.07;;;;;;;;;;4995500;28;20046;-84
2021/08/01 06:52:55;;;;;;;6.78;3.67;;;;;;;;;;5004595;28;20050;-85
2021/08/01 06:55:21;;;;;;;5.35;3.42;;;;;;;;;;5004505;28;20042;-84
2021/08/01 06:57:48;;;;;;;5.15;3.25;;;;;;;;;;4997700;28;20050;-82
2021/08/01 07:00:20;;;;;;;8.18;3.63;;;;;;;;;;4978438;28;20065;-83
2021/08/01 07:02:46;;;;;;;7.95;4.03;;;;;;;;;;4996972;28;20049;-82
2021/08/01 07:05:14;;;;;;;5.43;3.30;;;;;;;;;;4997904;28;20057;-82
2021/08/01 07:07:41;;;;;;;6.32;2.75;;;;;;;;;;4995685;28;20709;-82
2021/08/01 07:10:08;;;;;;;4.60;2.40;;;;;;;;;;4996141;28;20055;-82
2021/08/01 07:12:38;;;;;;;5.75;2.78;;;;;;;;;;4996528;28;20051;-82
2021/08/01 07:15:06;;;;;;;4.90;3.15;;;;;;;;;;4996609;28;20137;-82
2021/08/01 07:17:32;;;;;;;4.60;3.25;;;;;;;;;;4995427;28;20050;-82
2021/08/01 07:19:59;;;;;;;3.63;2.95;;;;;;;;;;4994815;28;20560;-82
2021/08/01 07:22:27;;;;;;;9.10;3.78;;;;;;;;;;4994521;28;20049;-83
2021/08/01 07:24:54;;;;;;;6.35;3.53;;;;;;;;;;4976800;28;20047;-82
2021/08/01 07:27:20;;;;;;;4.25;3.38;;;;;;;;;;4977494;28;20055;-83
2021/08/01 07:29:47;;;;;;;6.75;3.95;;;;;;;;;;4976015;28;20050;-82
2021/08/01 07:32:13;;;;;;;5.97;3.60;;;;;;;;;;4960147;28;20047;-84
2021/08/01 07:34:40;;;;;;;5.35;2.80;;;;;;;;;;4977291;28;20054;-83
2021/08/01 07:37:07;;;;;;;5.20;3.47;;;;;;;;;;4977728;28;20053;-83
2021/08/01 07:39:34;;;;;;;5.50;2.92;;;;;;;;;;4976312;28;20054;-83
2021/08/01 07:42:01;;;;;;;4.82;2.95;;;;;;;;;;4975063;28;20417;-82
2021/08/01 07:44:29;;;;;;;6.75;2.63;;;;;;;;;;4976528;28;20043;-82
2021/08/01 07:46:56;;;;;;;4.72;2.95;;;;;;;;;;4975028;28;20058;-82
2021/08/01 07:49:23;;;;;;;6.75;3.00;;;;;;;;;;4976519;28;20050;-84
2021/08/01 07:51:49;;;;;;;6.68;3.03;;;;;;;;;;4979915;28;20086;-82
2021/08/01 07:54:16;;;;;;;4.47;2.83;;;;;;;;;;4980877;28;20042;-82
2021/08/01 07:56:43;;;;;;;5.05;2.60;;;;;;;;;;4981059;28;20054;-82
2021/08/01 07:59:10;;;;;;;4.10;2.55;;;;;;;;;;4980435;28;20051;-84
2021/08/01 08:01:36;;;;;;;4.38;3.08;;;;;;;;;;4978327;28;20061;-82
2021/08/01 08:04:03;;;;;;;8.63;2.65;;;;;;;;;;4980166;28;20042;-82
2021/08/01 08:06:29;;;;;;;7.10;2.88;;;;;;;;;;4998736;28;20053;-82
2021/08/01 08:08:56;;;;;;;8.45;2.80;;;;;;;;;;4997752;28;20065;-82
2021/08/01 08:11:22;;;;;;;6.43;2.40;;;;;;;;;;4978659;28;20054;-82
2021/08/01 08:13:50;;;;;;;3.60;2.40;;;;;;;;;;4987972;28;20491;-83
2021/08/01 08:16:17;;;;;;;8.23;3.00;;;;;;;;;;4997158;28;20491;-82
2021/08/01 08:18:43;;;;;;;3.90;2.20;;;;;;;;;;4997789;28;20068;-83
2021/08/01 08:21:10;;;;;;;6.70;2.35;;;;;;;;;;4996924;28;20050;-82
2021/08/01 08:23:36;;;;;;;3.92;2.30;;;;;;;;;;4997155;28;20053;-83
2021/08/01 08:26:03;;;;;;;6.63;2.50;;;;;;;;;;5013669;28;20058;-83
2021/08/01 08:28:30;;;;;;;4.43;2.92;;;;;;;;;;4999388;28;20476;-83
2021/08/01 08:30:59;;;;;;;5.30;2.30;;;;;;;;;;4997455;28;20050;-83
2021/08/01 08:33:25;;;;;;;3.72;2.50;;;;;;;;;;4999700;28;20081;-83
2021/08/01 08:35:52;;;;;;;7.25;2.55;;;;;;;;;;5000219;28;20415;-83
2021/08/01 08:38:18;;;;;;;4.38;2.40;;;;;;;;;;5000804;28;20057;-83
2021/08/01 08:40:46;;;;;;;6.25;2.85;;;;;;;;;;5013595;28;20412;-82
2021/08/01 08:43:13;;;;;;;4.30;2.67;;;;;;;;;;5011457;28;20053;-84
2021/08/01 08:45:45;;;;;;;4.95;2.78;;;;;;;;;;5001478;28;20045;-83
2021/08/01 08:48:13;;;;;;;5.10;2.60;;;;;;;;;;5002865;28;20502;-82
2021/08/01 08:50:41;;;;;;;6.38;3.08;;;;;;;;;;4999948;28;20050;-82
2021/08/01 08:53:08;;;;;;;7.05;3.17;;;;;;;;;;5016844;28;20046;-83
2021/08/01 08:55:36;;;;;;;5.32;3.03;;;;;;;;;;4999585;28;20287;-84
2021/08/01 08:58:04;;;;;;;5.20;2.70;;;;;;;;;;5000408;28;20043;-83
2021/08/01 09:00:31;;;;;;;5.47;2.80;;;;;;;;;;5000502;28;20049;-82
2021/08/01 09:02:57;;;;;;;5.20;3.00;;;;;;;;;;5016156;28;20050;-83
2021/08/01 09:05:26;;;;;;;6.82;3.08;;;;;;;;;;4999867;28;20052;-82
2021/08/01 09:07:52;;;;;;;3.78;2.40;;;;;;;;;;5000820;28;20549;-83
2021/08/01 09:10:19;;;;;;;4.40;2.60;;;;;;;;;;5001539;28;20058;-82
2021/08/01 09:12:47;;;;;;;5.45;2.83;;;;;;;;;;5000461;28;20042;-83
2021/08/01 09:15:16;;;;;;;6.60;2.78;;;;;;;;;;4999156;28;20050;-82
2021/08/01 09:17:43;;;;;;;8.18;3.28;;;;;;;;;;5001441;28;20414;-82
2021/08/01 09:20:18;;;;;;;4.10;2.92;;;;;;;;;;4998402;28;20137;-83
2021/08/01 09:23:07;;;;;;;6.07;2.95;;;;;;;;;;4995741;28;20046;-82
2021/08/01 09:25:36;;;;;;;7.05;3.30;;;;;;;;;;4999404;28;20514;-82
2021/08/01 09:28:07;;;;;;;4.68;2.65;;;;;;;;;;4999746;28;20054;-82
2021/08/01 09:30:45;;;;;;;4.40;2.72;;;;;;;;;;5001125;28;20494;-83
2021/08/01 09:33:11;;;;;;;3.85;2.30;;;;;;;;;;5000349;28;20053;-82
2021/08/01 09:35:39;;;;;;;4.40;2.80;;;;;;;;;;5000170;28;20053;-82
2021/08/01 09:38:07;;;;;;;5.43;2.53;;;;;;;;;;4999842;28;20049;-83
2021/08/01 09:40:34;;;;;;;5.43;3.00;;;;;;;;;;5002748;28;20053;-83
2021/08/01 09:43:08;;;;;;;5.35;2.90;;;;;;;;;;5001658;28;20046;-83
2021/08/01 09:45:35;;;;;;;4.32;2.50;;;;;;;;;;5000649;28;20052;-83
2021/08/01 09:48:18;;;;;;;20.67;4.25;;;;;;;;;;4999623;28;20046;-83
2021/08/01 09:51:01;;;;;;;7.85;3.47;;;;;;;;;;5000418;28;20042;-83
2021/08/01 09:53:29;;;;;;;6.82;2.63;;;;;;;;;;5002039;28;20057;-82
2021/08/01 09:56:19;;;;;;;6.63;3.00;;;;;;;;;;5000782;28;20053;-83
2021/08/01 09:58:47;;;;;;;17.50;3.13;;;;;;;;;;5000555;28;20038;-82
2021/08/01 10:01:14;;;;;;;7.07;2.70;;;;;;;;;;5003289;28;20058;-82
2021/08/01 10:03:42;;;;;;;5.72;2.50;;;;;;;;;;4998601;28;20050;-83
2021/08/01 10:06:13;;;;;;;4.63;2.30;;;;;;;;;;5003237;28;20137;-83
2021/08/01 10:08:42;;;;;;;4.72;2.85;;;;;;;;;;5004126;28;20480;-82
2021/08/01 10:11:13;;;;;;;4.28;2.45;;;;;;;;;;5004176;28;20046;-81
2021/08/01 10:13:40;;;;;;;5.00;3.20;;;;;;;;;;5001895;28;20050;-82
2021/08/01 10:16:08;;;;;;;5.53;2.90;;;;;;;;;;5004056;28;20456;-83
2021/08/01 10:18:34;;;;;;;5.93;3.00;;;;;;;;;;5003305;28;20046;-82
2021/08/01 10:21:01;;;;;;;5.93;2.45;;;;;;;;;;5000296;28;20081;-84
2021/08/01 10:23:29;;;;;;;5.90;2.53;;;;;;;;;;5001855;28;20053;-82
2021/08/01 10:26:00;;;;;;;4.82;2.50;;;;;;;;;;5002000;28;20552;-82
2021/08/01 10:28:27;;;;;;;3.53;2.20;;;;;;;;;;5003956;28;20046;-82
2021/08/01 10:30:55;;;;;;;4.22;2.10;;;;;;;;;;5003052;28;20045;-81
2021/08/01 10:33:25;;;;;;;3.80;2.25;;;;;;;;;;5004276;28;20053;-82
2021/08/01 10:35:55;;;;;;;4.15;2.22;;;;;;;;;;5004728;28;20043;-82
2021/08/01 10:38:22;;;;;;;5.82;2.42;;;;;;;;;;5005272;28;20050;-82
2021/08/01 10:40:52;;;;;;;6.25;2.00;;;;;;;;;;5020643;28;20050;-83
2021/08/01 10:43:20;;;;;;;4.05;2.15;;;;;;;;;;5000314;28;20137;-83
2021/08/01 10:45:47;;;;;;;5.82;2.50;;;;;;;;;;5005557;28;20049;-82
2021/08/01 10:48:15;;;;;;;5.47;2.20;;;;;;;;;;5004634;28;20042;-82
2021/08/01 10:50:42;;;;;;;3.70;2.20;;;;;;;;;;5003545;28;20046;-83
2021/08/01 10:53:23;;;;;;;4.50;2.85;;;;;;;;;;5004694;28;20049;-82
2021/08/01 10:55:51;;;;;;;3.67;2.30;;;;;;;;;;5005685;28;20074;-82
2021/08/01 10:58:20;;;;;;;4.75;2.80;;;;;;;;;;5004740;28;20083;-84
2021/08/01 11:01:00;;;;;;;4.80;2.15;;;;;;;;;;5002470;28;20049;-82
2021/08/01 11:03:27;;;;;;;3.35;2.38;;;;;;;;;;5003391;28;20102;-82
2021/08/01 11:06:01;;;;;;;3.55;2.40;;;;;;;;;;5005392;28;20066;-83
2021/08/01 11:08:28;;;;;;;3.35;2.30;;;;;;;;;;5004238;28;20056;-84
2021/08/01 11:11:13;;;;;;;5.55;2.25;;;;;;;;;;4996685;28;20043;-82
2021/08/01 11:13:46;;;;;;;3.63;2.20;;;;;;;;;;4989792;28;20105;-82
2021/08/01 11:16:15;;;;;;;4.70;2.17;;;;;;;;;;4986714;28;20301;-83
2021/08/01 11:18:43;;;;;;;3.92;2.17;;;;;;;;;;4989043;28;20066;-84
2021/08/01 11:21:10;;;;;;;5.63;2.40;;;;;;;;;;4995313;28;20462;-83
2021/08/01 11:24:06;;;;;;;4.10;2.35;;;;;;;;;;4998150;28;20058;-82
2021/08/01 11:26:35;;;;;;;6.13;2.20;;;;;;;;;;4998051;28;20089;-83
2021/08/01 11:29:08;;;;;;;5.60;2.33;;;;;;;;;;4991150;28;20038;-82
2021/08/01 11:31:34;;;;;;;6.85;2.30;;;;;;;;;;4993924;28;20557;-84
2021/08/01 11:34:16;;;;;;;4.50;1.95;;;;;;;;;;5001577;28;20046;-82
2021/08/01 11:36:43;;;;;;;4.60;2.38;;;;;;;;;;5003140;28;20053;-84
2021/08/01 11:39:10;;;;;;;4.47;2.22;;;;;;;;;;4999900;28;20068;-83
2021/08/01 11:41:39;;;;;;;4.60;2.40;;;;;;;;;;4991110;28;20055;-83
2021/08/01 11:44:09;;;;;;;4.18;1.92;;;;;;;;;;5002266;28;20043;-83
2021/08/01 11:47:08;;;;;;;3.65;2.10;;;;;;;;;;4998300;28;20042;-84
2021/08/01 11:49:38;;;;;;;7.82;1.85;;;;;;;;;;5001077;28;20111;-83
2021/08/01 11:52:06;;;;;;;3.63;1.70;;;;;;;;;;4996523;28;20102;-83
2021/08/01 11:54:34;;;;;;;5.55;1.92;;;;;;;;;;4999459;28;20042;-83
2021/08/01 11:57:02;;;;;;;3.03;1.95;;;;;;;;;;4998401;28;20042;-83
2021/08/01 11:59:31;;;;;;;3.60;1.70;;;;;;;;;;4998335;28;20054;-83
2021/08/01 12:01:58;;;;;;;3.58;2.00;;;;;;;;;;4997293;28;20046;-84
2021/08/01 12:04:25;;;;;;;2.97;1.85;;;;;;;;;;4997729;28;20057;-84
2021/08/01 12:06:53;;;;;;;4.85;2.00;;;;;;;;;;5001167;28;20042;-84
2021/08/01 12:09:22;;;;;;;3.10;2.05;;;;;;;;;;5001324;28;20118;-83
2021/08/01 12:11:49;;;;;;;4.05;2.13;;;;;;;;;;4990318;28;20414;-83
2021/08/01 12:14:16;;;;;;;3.70;1.90;;;;;;;;;;4998936;28;20104;-84
2021/08/01 12:16:56;;;;;;;5.78;2.05;;;;;;;;;;4995619;28;20047;-84
2021/08/01 12:19:24;;;;;;;4.80;1.95;;;;;;;;;;4998823;28;20058;-83
2021/08/01 12:21:52;;;;;;;4.78;1.98;;;;;;;;;;4998399;28;20047;-85
2021/08/01 12:24:33;;;;;;;5.05;2.13;;;;;;;;;;4997644;28;20052;-83
2021/08/01 12:27:06;;;;;;;4.18;2.03;;;;;;;;;;4985003;28;20101;-83
2021/08/01 12:29:34;;;;;;;3.72;1.60;;;;;;;;;;4984989;28;20049;-83
2021/08/01 12:32:20;;;;;;;4.20;1.70;;;;;;;;;;4985130;28;20110;-83
2021/08/01 12:34:47;;;;;;;2.38;1.35;;;;;;;;;;4990699;28;20066;-84
2021/08/01 12:37:14;;;;;;;4.82;1.90;;;;;;;;;;4979787;28;20043;-84
2021/08/01 12:39:45;;;;;;;3.20;1.85;;;;;;;;;;4995030;28;20046;-84
2021/08/01 12:42:12;;;;;;;4.80;1.80;;;;;;;;;;4991838;28;20065;-84
2021/08/01 12:44:53;;;;;;;4.32;1.98;;;;;;;;;;4986037;28;20047;-84
2021/08/01 12:47:21;;;;;;;4.32;1.88;;;;;;;;;;4991369;28;20066;-84
2021/08/01 12:49:48;;;;;;;4.55;1.67;;;;;;;;;;4993315;28;20515;-83
2021/08/01 12:52:19;;;;;;;4.70;1.73;;;;;;;;;;4989608;28;20053;-85
2021/08/01 12:54:45;;;;;;;5.25;2.63;;;;;;;;;;4989372;28;20341;-83
2021/08/01 12:57:12;;;;;;;3.35;1.40;;;;;;;;;;4984041;28;20051;-83
2021/08/01 12:59:39;;;;;;;3.95;1.80;;;;;;;;;;4981659;28;20043;-84
2021/08/01 13:02:06;;;;;;;3.20;1.80;;;;;;;;;;4993242;28;20058;-83
2021/08/01 13:04:42;;;;;;;4.22;2.17;;;;;;;;;;4991528;28;20101;-84
2021/08/01 13:07:09;;;;;;;4.07;1.60;;;;;;;;;;4996175;28;20057;-84
2021/08/01 13:09:36;;;;;;;3.85;1.83;;;;;;;;;;4994970;28;20053;-84
2021/08/01 13:12:11;;;;;;;2.42;1.52;;;;;;;;;;4990142;28;20042;-83
2021/08/01 13:14:38;;;;;;;3.55;1.60;;;;;;;;;;4991092;28;20054;-84
2021/08/01 13:17:04;;;;;;;3.88;1.52;;;;;;;;;;4988957;28;20050;-83
2021/08/01 13:19:37;;;;;;;4.05;1.42;;;;;;;;;;4995152;28;20049;-82
2021/08/01 13:22:11;;;;;;;4.18;2.05;;;;;;;;;;4991294;28;20141;-82
2021/08/01 13:24:39;;;;;;;3.80;1.98;;;;;;;;;;4994536;28;20470;-83
2021/08/01 13:27:06;;;;;;;2.80;1.88;;;;;;;;;;4992169;28;20054;-83
2021/08/01 13:29:33;;;;;;;3.50;1.98;;;;;;;;;;4992864;28;20047;-84
2021/08/01 13:32:06;;;;;;;3.83;1.85;;;;;;;;;;4977068;28;20046;-83
2021/08/01 13:34:41;;;;;;;3.38;1.50;;;;;;;;;;4992128;28;20677;-84
2021/08/01 13:37:31;;;;;;;5.43;1.50;;;;;;;;;;4983414;28;20039;-85
2021/08/01 13:40:00;;;;;;;2.70;1.75;;;;;;;;;;4992092;28;20116;-84
2021/08/01 13:42:36;;;;;;;3.22;1.70;;;;;;;;;;4984734;28;20061;-83
2021/08/01 13:45:05;;;;;;;3.67;2.38;;;;;;;;;;4981403;28;20050;-85
2021/08/01 13:47:33;;;;;;;3.72;1.90;;;;;;;;;;4993082;28;20469;-85
2021/08/01 13:50:04;;;;;;;2.88;1.63;;;;;;;;;;4984856;28;20443;-85
2021/08/01 13:52:33;;;;;;;3.45;1.48;;;;;;;;;;4989761;28;20133;-84
2021/08/01 13:55:00;;;;;;;2.53;1.40;;;;;;;;;;4995037;28;20538;-85
2021/08/01 13:57:28;;;;;;;3.63;1.60;;;;;;;;;;4992589;28;20133;-84
2021/08/01 13:59:55;;;;;;;2.97;1.70;;;;;;;;;;4994440;28;20067;-84
2021/08/01 14:02:23;;;;;;;2.10;1.40;;;;;;;;;;4988752;28;20054;-84
2021/08/01 14:04:50;;;;;;;1.73;1.27;;;;;;;;;;4994700;28;20046;-84
2021/08/01 14:07:16;;;;;;;3.38;1.83;;;;;;;;;;4975025;28;20086;-84
2021/08/01 14:09:45;;;;;;;3.10;1.77;;;;;;;;;;4970838;28;20054;-85
2021/08/01 14:12:11;;;;;;;4.88;1.90;;;;;;;;;;4993576;28;20534;-85
2021/08/01 14:14:38;;;;;;;7.93;1.80;;;;;;;;;;4998471;28;20058;-84
2021/08/01 14:17:06;;;;;;;2.60;1.50;;;;;;;;;;4991456;28;20042;-84
2021/08/01 14:19:33;;;;;;;4.30;1.83;;;;;;;;;;4997870;28;20499;-84
2021/08/01 14:21:59;;;;;;;3.72;1.65;;;;;;;;;;4996538;28;20068;-85
2021/08/01 14:24:26;;;;;;;4.88;1.83;;;;;;;;;;4995469;28;20057;-85
2021/08/01 14:26:54;;;;;;;5.68;1.70;;;;;;;;;;4982205;28;20051;-85
2021/08/01 14:29:23;;;;;;;2.65;1.33;;;;;;;;;;4987099;28;20046;-85
2021/08/01 14:31:51;;;;;;;2.83;1.65;;;;;;;;;;4995880;28;20046;-86
2021/08/01 14:34:20;;;;;;;4.32;1.70;;;;;;;;;;5001152;28;20038;-87
2021/08/01 14:36:47;;;;;;;3.60;1.20;;;;;;;;;;4999204;28;20042;-87
2021/08/01 14:39:16;;;;;;;8.60;1.80;;;;;;;;;;4998369;28;20062;-86
2021/08/01 14:41:43;;;;;;;3.22;1.50;;;;;;;;;;4995231;28;20043;-87
2021/08/01 14:44:11;;;;;;;7.78;1.30;;;;;;;;;;4998545;28;20058;-85
2021/08/01 14:46:39;;;;;;;2.25;1.27;;;;;;;;;;4996205;28;20139;-86
2021/08/01 14:49:08;;;;;;;3.13;1.23;;;;;;;;;;4999766;28;20039;-86
2021/08/01 14:54:20;;;;;;;2.50;1.57;;;;;;;;;;4999135;28;20420;-87